createdAt,value
2018-02-10T00:00:43.083Z,0
2018-02-10T00:01:44.774Z,0
2018-02-10T00:02:46.513Z,0
2018-02-10T00:03:48.219Z,0
2018-02-10T00:04:49.919Z,0
2018-02-10T00:05:51.665Z,0
2018-02-10T00:06:53.309Z,0
2018-02-10T00:07:54.993Z,0
2018-02-10T00:08:56.692Z,0
2018-02-10T00:09:58.422Z,0
2018-02-10T00:11:00.129Z,0
2018-02-10T00:12:01.811Z,0
2018-02-10T00:13:03.572Z,0
2018-02-10T00:14:05.288Z,0
2018-02-10T00:15:06.975Z,0
2018-02-10T00:16:08.688Z,0
2018-02-10T00:17:10.503Z,0
2018-02-10T00:18:12.207Z,0
2018-02-10T00:19:13.944Z,0
2018-02-10T00:20:15.666Z,0
2018-02-10T00:21:17.355Z,0
2018-02-10T00:22:19.054Z,0
2018-02-10T00:23:20.779Z,0
2018-02-10T00:24:22.484Z,0
2018-02-10T00:25:24.271Z,0
2018-02-10T00:26:26.021Z,0
2018-02-10T00:27:27.755Z,0
2018-02-10T00:28:29.437Z,0
2018-02-10T00:29:31.112Z,0
2018-02-10T00:30:32.806Z,0
2018-02-10T00:31:34.492Z,0
2018-02-10T00:32:36.191Z,0
2018-02-10T00:33:37.892Z,0
2018-02-10T00:34:39.597Z,0
2018-02-10T00:35:41.283Z,0
2018-02-10T00:36:42.968Z,0
2018-02-10T00:37:44.653Z,0
2018-02-10T00:38:46.346Z,0
2018-02-10T00:39:48.042Z,0
2018-02-10T00:40:49.749Z,0
2018-02-10T00:41:51.447Z,0
2018-02-10T00:42:53.133Z,0
2018-02-10T00:43:54.845Z,0
2018-02-10T00:44:56.549Z,0
2018-02-10T00:45:58.247Z,0
2018-02-10T00:46:59.929Z,0
2018-02-10T00:48:01.637Z,0
2018-02-10T00:49:03.320Z,0
2018-02-10T00:50:05.009Z,0
2018-02-10T00:51:06.710Z,0
2018-02-10T00:52:08.389Z,0
2018-02-10T00:53:10.099Z,0
2018-02-10T00:54:11.826Z,0
2018-02-10T00:55:13.528Z,0
2018-02-10T00:56:15.206Z,0
2018-02-10T00:57:16.900Z,0
2018-02-10T00:58:18.590Z,0
2018-02-10T00:59:20.283Z,0
2018-02-10T01:00:21.969Z,0
2018-02-10T01:01:23.662Z,0
2018-02-10T01:02:25.364Z,0
2018-02-10T01:03:27.042Z,0
2018-02-10T01:04:28.730Z,0
2018-02-10T01:05:30.423Z,0
2018-02-10T01:06:32.124Z,0
2018-02-10T01:07:33.818Z,0
2018-02-10T01:08:35.506Z,0
2018-02-10T01:09:37.212Z,0
2018-02-10T01:10:38.893Z,0
2018-02-10T01:11:40.594Z,0
2018-02-10T01:12:42.276Z,0
2018-02-10T01:13:43.970Z,0
2018-02-10T01:14:45.666Z,0
2018-02-10T01:15:47.348Z,0
2018-02-10T01:16:49.065Z,0
2018-02-10T01:17:50.753Z,0
2018-02-10T01:18:52.456Z,0
2018-02-10T01:19:54.150Z,0
2018-02-10T01:20:55.861Z,0
2018-02-10T01:21:57.561Z,0
2018-02-10T01:22:59.290Z,0
2018-02-10T01:24:00.981Z,0
2018-02-10T01:25:02.681Z,0
2018-02-10T01:26:04.387Z,0
2018-02-10T01:27:06.099Z,0
2018-02-10T01:28:07.821Z,0
2018-02-10T01:29:09.544Z,0
2018-02-10T01:30:11.226Z,0
2018-02-10T01:31:12.922Z,0
2018-02-10T01:32:14.618Z,0
2018-02-10T01:33:16.369Z,0
2018-02-10T01:34:18.101Z,0
2018-02-10T01:35:19.811Z,0
2018-02-10T01:36:21.522Z,0
2018-02-10T01:37:23.218Z,0
2018-02-10T01:38:24.897Z,0
2018-02-10T01:39:26.627Z,0
2018-02-10T01:40:28.329Z,0
2018-02-10T01:41:30.021Z,0
2018-02-10T01:42:31.710Z,0
2018-02-10T01:43:33.482Z,0
2018-02-10T01:44:35.229Z,0
2018-02-10T01:45:36.949Z,0
2018-02-10T01:46:38.659Z,0
2018-02-10T01:47:40.370Z,0
2018-02-10T01:48:42.131Z,0
2018-02-10T01:49:43.820Z,0
2018-02-10T01:50:45.516Z,0
2018-02-10T01:51:47.236Z,0
2018-02-10T01:52:48.905Z,0
2018-02-10T01:53:50.616Z,0
2018-02-10T01:54:52.337Z,0
2018-02-10T01:55:54.050Z,0
2018-02-10T01:56:55.766Z,0
2018-02-10T01:57:57.479Z,0
2018-02-10T01:58:59.228Z,0
2018-02-10T02:00:00.976Z,0
2018-02-10T02:01:02.681Z,0
2018-02-10T02:02:04.392Z,0
2018-02-10T02:03:06.095Z,0
2018-02-10T02:04:07.939Z,0
2018-02-10T02:05:09.675Z,0
2018-02-10T02:06:11.420Z,0
2018-02-10T02:07:13.232Z,0
2018-02-10T02:08:14.924Z,0
2018-02-10T02:09:16.620Z,0
2018-02-10T02:10:18.307Z,0
2018-02-10T02:11:20.002Z,0
2018-02-10T02:12:21.715Z,0
2018-02-10T02:13:23.424Z,0
2018-02-10T02:14:25.119Z,0
2018-02-10T02:15:26.883Z,0
2018-02-10T02:16:28.608Z,0
2018-02-10T02:17:30.325Z,0
2018-02-10T02:18:32.056Z,0
2018-02-10T02:19:33.910Z,0
2018-02-10T02:20:35.606Z,0
2018-02-10T02:21:37.306Z,0
2018-02-10T02:22:39.006Z,0
2018-02-10T02:23:40.710Z,0
2018-02-10T02:24:42.488Z,0
2018-02-10T02:25:44.191Z,0
2018-02-10T02:26:45.891Z,0
2018-02-10T02:27:47.636Z,0
2018-02-10T02:28:49.352Z,0
2018-02-10T02:29:51.036Z,0
2018-02-10T02:30:52.729Z,0
2018-02-10T02:31:54.498Z,0
2018-02-10T02:32:56.205Z,0
2018-02-10T02:33:57.899Z,0
2018-02-10T02:34:59.639Z,0
2018-02-10T02:36:01.346Z,0
2018-02-10T02:37:03.062Z,0
2018-02-10T02:38:04.791Z,0
2018-02-10T02:39:06.488Z,0
2018-02-10T02:40:08.213Z,0
2018-02-10T02:41:09.968Z,0
2018-02-10T02:42:11.683Z,0
2018-02-10T02:43:13.392Z,0
2018-02-10T02:44:15.104Z,0
2018-02-10T02:45:16.862Z,0
2018-02-10T02:46:18.552Z,0
2018-02-10T02:47:20.276Z,0
2018-02-10T02:48:21.995Z,0
2018-02-10T02:49:23.732Z,0
2018-02-10T02:50:25.434Z,0
2018-02-10T02:51:27.175Z,0
2018-02-10T02:52:28.913Z,0
2018-02-10T02:53:30.722Z,0
2018-02-10T02:54:32.456Z,0
2018-02-10T02:55:34.147Z,0
2018-02-10T02:56:35.930Z,0
2018-02-10T02:57:37.703Z,0
2018-02-10T02:58:39.412Z,0
2018-02-10T02:59:41.123Z,0
2018-02-10T03:00:42.813Z,0
2018-02-10T03:01:44.535Z,0
2018-02-10T03:02:46.267Z,0
2018-02-10T03:03:48.002Z,0
2018-02-10T03:04:49.712Z,0
2018-02-10T03:05:51.465Z,0
2018-02-10T03:06:53.151Z,0
2018-02-10T03:07:54.891Z,0
2018-02-10T03:08:56.582Z,0
2018-02-10T03:09:58.265Z,0
2018-02-10T03:11:00.045Z,0
2018-02-10T03:12:01.736Z,0
2018-02-10T03:13:03.432Z,0
2018-02-10T03:14:05.175Z,0
2018-02-10T03:15:06.924Z,0
2018-02-10T03:16:08.647Z,0
2018-02-10T03:17:10.427Z,0
2018-02-10T03:18:12.128Z,0
2018-02-10T03:19:13.888Z,0
2018-02-10T03:20:15.589Z,0
2018-02-10T03:21:17.304Z,0
2018-02-10T03:22:19.010Z,0
2018-02-10T03:23:20.732Z,0
2018-02-10T03:24:22.513Z,0
2018-02-10T03:25:24.311Z,0
2018-02-10T03:26:26.030Z,0
2018-02-10T03:27:27.890Z,0
2018-02-10T03:28:29.696Z,0
2018-02-10T03:29:31.394Z,0
2018-02-10T03:30:33.117Z,0
2018-02-10T03:31:34.845Z,0
2018-02-10T03:32:36.594Z,0
2018-02-10T03:33:38.339Z,0
2018-02-10T03:34:40.153Z,0
2018-02-10T03:35:41.909Z,0
2018-02-10T03:36:43.600Z,0
2018-02-10T03:37:45.276Z,0
2018-02-10T03:38:47.103Z,0
2018-02-10T03:39:48.798Z,0
2018-02-10T03:40:50.557Z,0
2018-02-10T03:41:52.434Z,0
2018-02-10T03:42:54.157Z,0
2018-02-10T03:43:55.871Z,0
2018-02-10T03:44:57.620Z,0
2018-02-10T03:45:59.318Z,0
2018-02-10T03:47:00.998Z,0
2018-02-10T03:48:02.681Z,0
2018-02-10T03:49:04.371Z,0
2018-02-10T03:50:06.086Z,0
2018-02-10T03:51:07.783Z,0
2018-02-10T03:52:09.479Z,0
2018-02-10T03:53:11.214Z,0
2018-02-10T03:54:12.906Z,0
2018-02-10T03:55:14.603Z,0
2018-02-10T03:56:16.302Z,0
2018-02-10T03:57:18.012Z,0
2018-02-10T03:58:19.769Z,0
2018-02-10T03:59:21.473Z,0
2018-02-10T04:00:23.173Z,0
2018-02-10T04:01:24.902Z,0
2018-02-10T04:02:26.586Z,0
2018-02-10T04:03:28.307Z,0
2018-02-10T04:04:30.014Z,0
2018-02-10T04:05:31.707Z,0
2018-02-10T04:06:33.413Z,0
2018-02-10T04:07:35.100Z,0
2018-02-10T04:08:36.799Z,0
2018-02-10T04:09:39.667Z,0
2018-02-10T04:10:41.398Z,0
2018-02-10T04:11:43.093Z,0
2018-02-10T04:12:44.828Z,0
2018-02-10T04:13:46.527Z,0
2018-02-10T04:14:48.218Z,0
2018-02-10T04:15:49.903Z,0
2018-02-10T04:16:51.597Z,0
2018-02-10T04:17:53.292Z,0
2018-02-10T04:18:54.989Z,0
2018-02-10T04:19:56.676Z,0
2018-02-10T04:20:58.432Z,0
2018-02-10T04:22:00.131Z,0
2018-02-10T04:23:01.875Z,0
2018-02-10T04:24:03.570Z,0
2018-02-10T04:25:05.257Z,0
2018-02-10T04:26:06.972Z,0
2018-02-10T04:27:08.653Z,0
2018-02-10T04:28:10.429Z,0
2018-02-10T04:29:12.139Z,0
2018-02-10T04:30:13.851Z,0
2018-02-10T04:31:15.601Z,0
2018-02-10T04:32:17.321Z,0
2018-02-10T04:33:19.043Z,0
2018-02-10T04:34:20.884Z,0
2018-02-10T04:35:22.603Z,0
2018-02-10T04:36:24.331Z,0
2018-02-10T04:37:26.050Z,0
2018-02-10T04:38:27.766Z,0
2018-02-10T04:39:29.508Z,0
2018-02-10T04:40:31.275Z,0
2018-02-10T04:41:33.016Z,0
2018-02-10T04:42:34.711Z,0
2018-02-10T04:43:36.430Z,0
2018-02-10T04:44:38.170Z,0
2018-02-10T04:45:39.883Z,0
2018-02-10T04:46:41.600Z,0
2018-02-10T04:47:43.318Z,0
2018-02-10T04:48:45.050Z,0
2018-02-10T04:49:46.764Z,0
2018-02-10T04:50:48.469Z,0
2018-02-10T04:51:50.184Z,0
2018-02-10T04:52:51.947Z,0
2018-02-10T04:53:53.684Z,0
2018-02-10T04:54:55.421Z,0
2018-02-10T04:55:57.166Z,0
2018-02-10T04:56:58.867Z,0
2018-02-10T04:58:00.584Z,0
2018-02-10T04:59:02.297Z,0
2018-02-10T05:00:03.972Z,0
2018-02-10T05:01:05.667Z,0
2018-02-10T05:02:07.368Z,0
2018-02-10T05:03:09.056Z,0
2018-02-10T05:04:10.769Z,0
2018-02-10T05:05:12.492Z,0
2018-02-10T05:06:14.206Z,0
2018-02-10T05:07:16.001Z,0
2018-02-10T05:08:17.680Z,0
2018-02-10T05:09:19.383Z,0
2018-02-10T05:10:21.156Z,0
2018-02-10T05:11:22.834Z,0
2018-02-10T05:12:24.536Z,0
2018-02-10T05:13:26.234Z,0
2018-02-10T05:14:27.936Z,0
2018-02-10T05:15:29.643Z,0
2018-02-10T05:16:31.348Z,0
2018-02-10T05:17:33.035Z,0
2018-02-10T05:18:34.722Z,0
2018-02-10T05:19:36.462Z,0
2018-02-10T05:20:38.169Z,0
2018-02-10T05:21:39.893Z,0
2018-02-10T05:22:41.660Z,0
2018-02-10T05:23:43.327Z,0
2018-02-10T05:24:45.114Z,0
2018-02-10T05:25:46.809Z,0
2018-02-10T05:26:48.501Z,0
2018-02-10T05:27:50.209Z,0
2018-02-10T05:28:51.904Z,0
2018-02-10T05:29:53.619Z,0
2018-02-10T05:30:55.361Z,0
2018-02-10T05:31:57.172Z,0
2018-02-10T05:32:58.878Z,0
2018-02-10T05:34:00.645Z,0
2018-02-10T05:35:02.459Z,0
2018-02-10T05:36:04.181Z,0
2018-02-10T05:37:05.884Z,0
2018-02-10T05:38:07.583Z,0
2018-02-10T05:39:09.310Z,0
2018-02-10T05:40:11.091Z,0
2018-02-10T05:41:12.788Z,0
2018-02-10T05:42:14.485Z,0
2018-02-10T05:43:16.174Z,0
2018-02-10T05:44:17.886Z,0
2018-02-10T05:45:19.576Z,0
2018-02-10T05:46:21.264Z,0
2018-02-10T05:47:22.937Z,0
2018-02-10T05:48:24.633Z,0
2018-02-10T05:49:26.323Z,0
2018-02-10T05:50:28.027Z,0
2018-02-10T05:51:29.740Z,0
2018-02-10T05:52:31.439Z,0
2018-02-10T05:53:33.143Z,0
2018-02-10T05:54:34.835Z,0
2018-02-10T05:55:36.550Z,0
2018-02-10T05:56:38.233Z,0
2018-02-10T05:57:39.970Z,0
2018-02-10T05:58:41.660Z,0
2018-02-10T05:59:43.392Z,0
2018-02-10T06:00:45.096Z,0
2018-02-10T06:01:46.797Z,0
2018-02-10T06:02:48.485Z,0
2018-02-10T06:03:50.200Z,0
2018-02-10T06:04:51.901Z,0
2018-02-10T06:05:53.619Z,0
2018-02-10T06:06:55.310Z,0
2018-02-10T06:07:57.084Z,0
2018-02-10T06:08:58.746Z,0
2018-02-10T06:10:00.450Z,0
2018-02-10T06:11:02.156Z,0
2018-02-10T06:12:03.875Z,0
2018-02-10T06:13:05.576Z,0
2018-02-10T06:14:07.257Z,0
2018-02-10T06:15:08.948Z,0
2018-02-10T06:16:10.650Z,0
2018-02-10T06:17:12.337Z,0
2018-02-10T06:18:14.045Z,0
2018-02-10T06:19:15.726Z,0
2018-02-10T06:20:17.437Z,0
2018-02-10T06:21:19.133Z,0
2018-02-10T06:22:20.835Z,0
2018-02-10T06:23:22.522Z,0
2018-02-10T06:24:24.223Z,0
2018-02-10T06:25:25.912Z,0
2018-02-10T06:26:27.622Z,0
2018-02-10T06:27:29.345Z,0
2018-02-10T06:28:31.044Z,0
2018-02-10T06:29:32.752Z,0
2018-02-10T06:30:34.448Z,0
2018-02-10T06:31:36.134Z,0
2018-02-10T06:32:37.853Z,0
2018-02-10T06:33:39.547Z,0
2018-02-10T06:34:41.233Z,0
2018-02-10T06:35:42.917Z,0
2018-02-10T06:36:44.622Z,0
2018-02-10T06:37:46.309Z,0
2018-02-10T06:38:47.988Z,0
2018-02-10T06:39:49.688Z,0
2018-02-10T06:40:51.371Z,0
2018-02-10T06:41:53.120Z,0
2018-02-10T06:42:54.820Z,0
2018-02-10T06:43:56.519Z,0
2018-02-10T06:44:58.209Z,0
2018-02-10T06:45:59.915Z,0
2018-02-10T06:47:01.607Z,0
2018-02-10T06:48:03.311Z,0
2018-02-10T06:49:05.006Z,0
2018-02-10T06:50:06.685Z,0
2018-02-10T06:51:08.393Z,0
2018-02-10T06:52:10.080Z,0
2018-02-10T06:53:11.774Z,0
2018-02-10T06:54:13.481Z,0
2018-02-10T06:55:15.193Z,0
2018-02-10T06:56:16.898Z,0
2018-02-10T06:57:18.593Z,0
2018-02-10T06:58:20.314Z,0
2018-02-10T06:59:22.029Z,0
2018-02-10T07:00:23.717Z,0
2018-02-10T07:01:25.430Z,0
2018-02-10T07:02:27.148Z,0
2018-02-10T07:03:28.832Z,0
2018-02-10T07:04:30.538Z,0
2018-02-10T07:05:32.281Z,0
2018-02-10T07:06:33.979Z,0
2018-02-10T07:07:35.671Z,0
2018-02-10T07:08:37.366Z,0
2018-02-10T07:09:39.071Z,0
2018-02-10T07:10:40.779Z,0
2018-02-10T07:11:42.492Z,0
2018-02-10T07:12:44.206Z,4
2018-02-10T07:13:45.912Z,0
2018-02-10T07:14:47.593Z,4
2018-02-10T07:15:49.354Z,4
2018-02-10T07:16:50.994Z,4
2018-02-10T07:17:52.685Z,8
2018-02-10T07:18:54.381Z,8
2018-02-10T07:19:56.077Z,12
2018-02-10T07:20:57.794Z,8
2018-02-10T07:21:59.503Z,12
2018-02-10T07:23:01.202Z,16
2018-02-10T07:24:02.883Z,20
2018-02-10T07:25:04.591Z,20
2018-02-10T07:26:06.289Z,28
2018-02-10T07:27:07.991Z,36
2018-02-10T07:28:09.679Z,40
2018-02-10T07:29:11.373Z,52
2018-02-10T07:30:13.063Z,64
2018-02-10T07:31:14.749Z,80
2018-02-10T07:32:16.448Z,92
2018-02-10T07:33:18.141Z,100
2018-02-10T07:34:19.846Z,108
2018-02-10T07:35:21.557Z,120
2018-02-10T07:36:23.239Z,128
2018-02-10T07:37:24.944Z,148
2018-02-10T07:38:26.640Z,160
2018-02-10T07:39:28.343Z,180
2018-02-10T07:40:30.024Z,196
2018-02-10T07:41:31.707Z,212
2018-02-10T07:42:33.394Z,232
2018-02-10T07:43:35.097Z,256
2018-02-10T07:44:36.794Z,288
2018-02-10T07:45:38.491Z,316
2018-02-10T07:46:40.242Z,348
2018-02-10T07:47:41.938Z,380
2018-02-10T07:48:43.633Z,416
2018-02-10T07:49:45.324Z,448
2018-02-10T07:50:47.069Z,480
2018-02-10T07:51:48.757Z,528
2018-02-10T07:52:50.465Z,588
2018-02-10T07:53:52.159Z,648
2018-02-10T07:54:53.886Z,708
2018-02-10T07:55:55.586Z,756
2018-02-10T07:56:57.286Z,812
2018-02-10T07:57:58.979Z,852
2018-02-10T07:59:00.678Z,876
2018-02-10T08:00:02.434Z,868
2018-02-10T08:01:04.111Z,864
2018-02-10T08:02:05.796Z,888
2018-02-10T08:03:07.508Z,952
2018-02-10T08:04:09.222Z,992
2018-02-10T08:05:10.923Z,1020
2018-02-10T08:06:12.620Z,1092
2018-02-10T08:07:14.311Z,1164
2018-02-10T08:08:16.019Z,1268
2018-02-10T08:09:17.718Z,1376
2018-02-10T08:10:19.426Z,1496
2018-02-10T08:11:21.122Z,1596
2018-02-10T08:12:22.833Z,1704
2018-02-10T08:13:24.570Z,1820
2018-02-10T08:14:26.277Z,1908
2018-02-10T08:15:27.989Z,1972
2018-02-10T08:16:29.713Z,2044
2018-02-10T08:17:31.432Z,2104
2018-02-10T08:18:33.165Z,2220
2018-02-10T08:19:34.874Z,2276
2018-02-10T08:20:36.599Z,2336
2018-02-10T08:21:38.300Z,2404
2018-02-10T08:22:40.004Z,2480
2018-02-10T08:23:41.728Z,2504
2018-02-10T08:24:43.455Z,2492
2018-02-10T08:25:45.163Z,2448
2018-02-10T08:26:46.889Z,2436
2018-02-10T08:27:48.588Z,2436
2018-02-10T08:28:50.324Z,2548
2018-02-10T08:29:52.022Z,2728
2018-02-10T08:30:53.771Z,2868
2018-02-10T08:31:55.507Z,2912
2018-02-10T08:32:57.209Z,2916
2018-02-10T08:33:58.906Z,2944
2018-02-10T08:35:00.622Z,2968
2018-02-10T08:36:02.329Z,3104
2018-02-10T08:37:04.065Z,3260
2018-02-10T08:38:05.804Z,3356
2018-02-10T08:39:07.519Z,3392
2018-02-10T08:40:09.238Z,3320
2018-02-10T08:41:10.954Z,3196
2018-02-10T08:42:12.665Z,3256
2018-02-10T08:43:14.370Z,3288
2018-02-10T08:44:16.124Z,3364
2018-02-10T08:45:17.744Z,3284
2018-02-10T08:46:19.443Z,3076
2018-02-10T08:47:21.134Z,2976
2018-02-10T08:48:22.840Z,2996
2018-02-10T08:49:24.549Z,2956
2018-02-10T08:50:26.267Z,3032
2018-02-10T08:51:27.981Z,3088
2018-02-10T08:52:29.712Z,3132
2018-02-10T08:53:31.405Z,3384
2018-02-10T08:54:33.120Z,3760
2018-02-10T08:55:34.812Z,4028
2018-02-10T08:56:36.521Z,4180
2018-02-10T08:57:38.213Z,4372
2018-02-10T08:58:39.914Z,4576
2018-02-10T08:59:41.740Z,4688
2018-02-10T09:00:43.419Z,4808
2018-02-10T09:01:45.137Z,4868
2018-02-10T09:02:46.865Z,4500
2018-02-10T09:03:48.556Z,4536
2018-02-10T09:04:50.304Z,4248
2018-02-10T09:05:53.012Z,4172
2018-02-10T09:06:54.985Z,4100
2018-02-10T09:07:56.682Z,4196
2018-02-10T09:08:58.394Z,3924
2018-02-10T09:10:00.188Z,3820
2018-02-10T09:11:01.914Z,3764
2018-02-10T09:12:03.633Z,3588
2018-02-10T09:13:05.350Z,3512
2018-02-10T09:14:07.054Z,3588
2018-02-10T09:15:08.780Z,3684
2018-02-10T09:16:10.470Z,3528
2018-02-10T09:17:12.218Z,3312
2018-02-10T09:18:13.906Z,2980
2018-02-10T09:19:15.749Z,2872
2018-02-10T09:20:17.429Z,2860
2018-02-10T09:21:19.127Z,2856
2018-02-10T09:22:20.837Z,2836
2018-02-10T09:23:22.574Z,2820
2018-02-10T09:24:24.274Z,2792
2018-02-10T09:25:26.003Z,2768
2018-02-10T09:26:27.707Z,2748
2018-02-10T09:27:29.455Z,2740
2018-02-10T09:28:31.157Z,2732
2018-02-10T09:29:33.007Z,2732
2018-02-10T09:30:34.708Z,2744
2018-02-10T09:31:36.422Z,2748
2018-02-10T09:32:38.147Z,2768
2018-02-10T09:33:39.853Z,2780
2018-02-10T09:34:41.563Z,2800
2018-02-10T09:35:44.162Z,2812
2018-02-10T09:36:45.873Z,2828
2018-02-10T09:37:47.597Z,2848
2018-02-10T09:38:49.305Z,2860
2018-02-10T09:39:51.014Z,2876
2018-02-10T09:40:52.730Z,2892
2018-02-10T09:41:54.442Z,2924
2018-02-10T09:42:56.216Z,2952
2018-02-10T09:43:57.930Z,2996
2018-02-10T09:44:59.650Z,3044
2018-02-10T09:46:01.365Z,3096
2018-02-10T09:47:03.200Z,3148
2018-02-10T09:48:04.932Z,3204
2018-02-10T09:49:06.660Z,3236
2018-02-10T09:50:08.391Z,3264
2018-02-10T09:53:36.522Z,3456
2018-02-10T09:54:38.247Z,3528
2018-02-10T09:55:40.043Z,3600
2018-02-10T09:56:41.899Z,3720
2018-02-10T09:57:43.599Z,3868
2018-02-10T09:58:45.330Z,3884
2018-02-10T09:59:47.027Z,4024
2018-02-10T10:00:48.776Z,4160
2018-02-10T10:01:50.556Z,4424
2018-02-10T10:02:52.277Z,4648
2018-02-10T10:03:53.986Z,4948
2018-02-10T10:04:55.679Z,5460
2018-02-10T10:05:57.546Z,5896
2018-02-10T10:06:59.395Z,6384
2018-02-10T10:08:01.124Z,6672
2018-02-10T10:09:02.977Z,6912
2018-02-10T10:10:05.308Z,7292
2018-02-10T10:11:07.125Z,7744
2018-02-10T10:12:10.748Z,7948
2018-02-10T10:13:12.436Z,8072
2018-02-10T10:14:14.132Z,8236
2018-02-10T10:15:15.818Z,8508
2018-02-10T10:16:17.507Z,8892
2018-02-10T10:17:19.260Z,9208
2018-02-10T10:18:20.965Z,9176
2018-02-10T10:19:22.687Z,9820
2018-02-10T10:20:24.388Z,10248
2018-02-10T10:21:26.134Z,10852
2018-02-10T10:22:27.867Z,11180
2018-02-10T10:23:29.577Z,12204
2018-02-10T10:24:31.615Z,12556
2018-02-10T10:25:33.378Z,13164
2018-02-10T10:26:35.357Z,13484
2018-02-10T10:27:37.088Z,14752
2018-02-10T10:28:38.867Z,20480
2018-02-10T10:29:40.778Z,40224
2018-02-10T10:30:42.547Z,59360
2018-02-10T10:31:44.286Z,57088
2018-02-10T10:32:46.281Z,45152
2018-02-10T10:33:48.065Z,62560
2018-02-10T10:34:49.781Z,47360
2018-02-10T10:35:51.498Z,52128
2018-02-10T10:36:53.238Z,72992
2018-02-10T10:37:54.963Z,70752
2018-02-10T10:38:56.725Z,68384
2018-02-10T10:39:58.495Z,68128
2018-02-10T10:41:00.377Z,67936
2018-02-10T10:42:02.085Z,54400
2018-02-10T10:43:03.877Z,62048
2018-02-10T10:44:05.588Z,61792
2018-02-10T10:45:07.295Z,37696
2018-02-10T10:46:09.015Z,27104
2018-02-10T10:47:10.732Z,100288
2018-02-10T10:48:12.435Z,30688
2018-02-10T10:49:14.184Z,38592
2018-02-10T10:50:15.914Z,38240
2018-02-10T10:51:17.644Z,74496
2018-02-10T10:52:19.354Z,100768
2018-02-10T10:53:21.063Z,90848
2018-02-10T10:54:22.791Z,73504
2018-02-10T10:55:24.507Z,51968
2018-02-10T10:56:26.219Z,92800
2018-02-10T10:57:27.935Z,85280
2018-02-10T10:58:29.646Z,62400
2018-02-10T10:59:31.465Z,59040
2018-02-10T11:00:33.178Z,24512
2018-02-10T11:01:34.961Z,34208
2018-02-10T11:02:36.722Z,40256
2018-02-10T11:03:38.534Z,25984
2018-02-10T11:04:40.235Z,23840
2018-02-10T11:05:41.933Z,52640
2018-02-10T11:06:43.642Z,51968
2018-02-10T11:07:45.401Z,51072
2018-02-10T11:08:47.102Z,46240
2018-02-10T11:09:48.795Z,50016
2018-02-10T11:10:50.530Z,55968
2018-02-10T11:11:52.237Z,50432
2018-02-10T11:12:53.973Z,43840
2018-02-10T11:13:55.721Z,49504
2018-02-10T11:14:57.471Z,64480
2018-02-10T11:15:59.175Z,77856
2018-02-10T11:17:00.916Z,57696
2018-02-10T11:18:02.632Z,77152
2018-02-10T11:19:04.360Z,63200
2018-02-10T11:20:06.068Z,70624
2018-02-10T11:21:07.791Z,79744
2018-02-10T11:22:09.504Z,85056
2018-02-10T11:23:11.241Z,80096
2018-02-10T11:24:12.957Z,82880
2018-02-10T11:25:14.669Z,78560
2018-02-10T11:26:16.381Z,88416
2018-02-10T11:27:18.139Z,95072
2018-02-10T11:28:19.862Z,72160
2018-02-10T11:29:21.570Z,62624
2018-02-10T11:30:23.279Z,59104
2018-02-10T11:31:25.019Z,62656
2018-02-10T11:32:26.782Z,61792
2018-02-10T11:33:28.547Z,64608
2018-02-10T11:34:30.267Z,62368
2018-02-10T11:35:31.968Z,62400
2018-02-10T11:36:33.706Z,71136
2018-02-10T11:37:35.426Z,69888
2018-02-10T11:38:37.158Z,60832
2018-02-10T11:39:38.882Z,62336
2018-02-10T11:40:40.635Z,73376
2018-02-10T11:41:42.324Z,65376
2018-02-10T11:42:44.041Z,65056
2018-02-10T11:43:45.765Z,58752
2018-02-10T11:44:47.502Z,54304
2018-02-10T11:45:49.213Z,51840
2018-02-10T11:46:50.953Z,51776
2018-02-10T11:47:52.686Z,51744
2018-02-10T11:48:54.420Z,52384
2018-02-10T11:49:56.171Z,53184
2018-02-10T11:50:57.898Z,53472
2018-02-10T11:51:59.599Z,52224
2018-02-10T11:53:01.314Z,50656
2018-02-10T11:54:03.052Z,49952
2018-02-10T11:55:04.767Z,50272
2018-02-10T11:56:06.526Z,50400
2018-02-10T11:57:08.272Z,50400
2018-02-10T11:58:10.047Z,49824
2018-02-10T11:59:11.773Z,49952
2018-02-10T12:00:13.588Z,49728
2018-02-10T12:01:15.319Z,49824
2018-02-10T12:02:17.078Z,48960
2018-02-10T12:03:18.840Z,47616
2018-02-10T12:04:20.660Z,45088
2018-02-10T12:05:22.475Z,42592
2018-02-10T12:06:24.210Z,43168
2018-02-10T12:07:25.997Z,43040
2018-02-10T12:08:27.909Z,42496
2018-02-10T12:09:29.743Z,41344
2018-02-10T12:10:31.572Z,40256
2018-02-10T12:11:33.325Z,39840
2018-02-10T12:12:35.122Z,39776
2018-02-10T12:13:37.113Z,40096
2018-02-10T12:14:38.831Z,39808
2018-02-10T12:15:40.585Z,39136
2018-02-10T12:16:42.305Z,38912
2018-02-10T12:17:44.089Z,38016
2018-02-10T12:18:45.826Z,37568
2018-02-10T12:19:47.593Z,37120
2018-02-10T12:20:49.321Z,37216
2018-02-10T12:21:51.200Z,37312
2018-02-10T12:22:52.964Z,36736
2018-02-10T12:23:54.742Z,36288
2018-02-10T12:24:56.513Z,36384
2018-02-10T12:25:58.349Z,36192
2018-02-10T12:27:00.091Z,35968
2018-02-10T12:28:01.794Z,35872
2018-02-10T12:29:03.506Z,35360
2018-02-10T12:30:05.233Z,34656
2018-02-10T12:31:06.945Z,34176
2018-02-10T12:32:08.651Z,33984
2018-02-10T12:33:10.395Z,33824
2018-02-10T12:34:12.106Z,33280
2018-02-10T12:35:13.820Z,32416
2018-02-10T12:36:15.535Z,32864
2018-02-10T12:37:17.273Z,34592
2018-02-10T12:38:18.989Z,36384
2018-02-10T12:39:20.706Z,34848
2018-02-10T12:40:22.469Z,32480
2018-02-10T12:41:24.128Z,31968
2018-02-10T12:42:25.876Z,31904
2018-02-10T12:43:27.610Z,31872
2018-02-10T12:44:29.360Z,31104
2018-02-10T12:45:31.092Z,30304
2018-02-10T12:49:01.217Z,31232
2018-02-10T12:50:02.943Z,31680
2018-02-10T12:51:04.692Z,32832
2018-02-10T12:52:06.401Z,33728
2018-02-10T12:53:08.122Z,34176
2018-02-10T12:54:09.830Z,33920
2018-02-10T12:55:11.592Z,34656
2018-02-10T12:56:13.345Z,34880
2018-02-10T12:57:15.047Z,35168
2018-02-10T12:58:16.787Z,35552
2018-02-10T12:59:18.495Z,34304
2018-02-10T13:00:20.223Z,28320
2018-02-10T13:01:21.959Z,23616
2018-02-10T13:02:23.768Z,21728
2018-02-10T13:03:25.488Z,20032
2018-02-10T13:04:27.405Z,19200
2018-02-10T13:05:29.160Z,19008
2018-02-10T13:06:30.870Z,18592
2018-02-10T13:07:32.604Z,18944
2018-02-10T13:08:34.626Z,19200
2018-02-10T13:09:36.357Z,18208
2018-02-10T13:10:38.065Z,18016
2018-02-10T13:11:39.806Z,18560
2018-02-10T13:12:41.525Z,18784
2018-02-10T13:13:43.222Z,19360
2018-02-10T13:14:44.964Z,21248
2018-02-10T13:15:46.674Z,22528
2018-02-10T13:16:48.391Z,23040
2018-02-10T13:17:50.118Z,24128
2018-02-10T13:18:51.821Z,25248
2018-02-10T13:19:53.532Z,26560
2018-02-10T13:20:55.257Z,27168
2018-02-10T13:21:56.960Z,26560
2018-02-10T13:22:58.663Z,26592
2018-02-10T13:24:00.367Z,26656
2018-02-10T13:25:02.106Z,26848
2018-02-10T13:26:03.837Z,27104
2018-02-10T13:27:05.546Z,28352
2018-02-10T13:28:07.279Z,29120
2018-02-10T13:29:09.051Z,29472
2018-02-10T13:30:10.765Z,30784
2018-02-10T13:31:12.526Z,32544
2018-02-10T13:32:14.246Z,35008
2018-02-10T13:33:15.978Z,36224
2018-02-10T13:34:17.681Z,33440
2018-02-10T13:35:19.410Z,31360
2018-02-10T13:36:21.141Z,32160
2018-02-10T13:37:22.910Z,26272
2018-02-10T13:38:24.632Z,18240
2018-02-10T13:39:26.352Z,18336
2018-02-10T13:40:28.062Z,19520
2018-02-10T13:41:29.784Z,22400
2018-02-10T13:42:31.487Z,29632
2018-02-10T13:43:33.228Z,34528
2018-02-10T13:44:34.966Z,30816
2018-02-10T13:45:36.668Z,25632
2018-02-10T13:46:38.393Z,20320
2018-02-10T13:47:40.106Z,19616
2018-02-10T13:48:41.802Z,21280
2018-02-10T13:49:43.513Z,24832
2018-02-10T13:50:45.228Z,30528
2018-02-10T13:51:46.949Z,34560
2018-02-10T13:52:48.693Z,35488
2018-02-10T13:53:50.406Z,37920
2018-02-10T13:54:52.114Z,41632
2018-02-10T13:55:53.828Z,47616
2018-02-10T13:56:55.550Z,51360
2018-02-10T13:57:57.324Z,53056
2018-02-10T13:58:58.979Z,54272
2018-02-10T14:00:00.704Z,61536
2018-02-10T14:01:02.422Z,70112
2018-02-10T14:02:04.155Z,75712
2018-02-10T14:03:05.876Z,79968
2018-02-10T14:04:07.598Z,79840
2018-02-10T14:05:09.310Z,84224
2018-02-10T14:06:11.085Z,84800
2018-02-10T14:07:12.795Z,83872
2018-02-10T14:08:14.509Z,86592
2018-02-10T14:09:16.230Z,83904
2018-02-10T14:10:17.956Z,80864
2018-02-10T14:11:19.738Z,83936
2018-02-10T14:12:21.467Z,85792
2018-02-10T14:13:23.165Z,84704
2018-02-10T14:14:24.926Z,82400
2018-02-10T14:15:26.614Z,81216
2018-02-10T14:16:28.337Z,78656
2018-02-10T14:17:30.010Z,76992
2018-02-10T14:18:31.763Z,75264
2018-02-10T14:19:33.474Z,42816
2018-02-10T14:20:35.200Z,19168
2018-02-10T14:21:36.926Z,17760
2018-02-10T14:22:38.638Z,17024
2018-02-10T14:23:40.344Z,33664
2018-02-10T14:24:42.049Z,61120